sensor_id;sensor_type;location;lat;lon;timestamp;P1;durP1;ratioP1;P2;durP2;ratioP2
25015;SDS011;13029;46.286;7.488;2022-10-01T00:01:03;4.00;;;3.60;;
25015;SDS011;13029;46.286;7.488;2022-10-01T00:03:30;4.15;;;3.50;;
25015;SDS011;13029;46.286;7.488;2022-10-01T00:05:59;5.90;;;3.58;;
25015;SDS011;13029;46.286;7.488;2022-10-01T00:08:25;4.50;;;4.10;;
25015;SDS011;13029;46.286;7.488;2022-10-01T00:10:51;3.30;;;2.97;;
25015;SDS011;13029;46.286;7.488;2022-10-01T00:13:17;4.80;;;3.42;;
25015;SDS011;13029;46.286;7.488;2022-10-01T00:15:42;3.53;;;3.20;;
25015;SDS011;13029;46.286;7.488;2022-10-01T00:18:08;5.07;;;3.08;;
25015;SDS011;13029;46.286;7.488;2022-10-01T00:20:34;3.83;;;3.40;;
25015;SDS011;13029;46.286;7.488;2022-10-01T00:22:59;3.42;;;3.05;;
25015;SDS011;13029;46.286;7.488;2022-10-01T00:25:25;3.15;;;2.85;;
25015;SDS011;13029;46.286;7.488;2022-10-01T00:27:50;4.63;;;2.58;;
25015;SDS011;13029;46.286;7.488;2022-10-01T00:30:15;2.95;;;2.65;;
25015;SDS011;13029;46.286;7.488;2022-10-01T00:32:41;3.83;;;3.33;;
25015;SDS011;13029;46.286;7.488;2022-10-01T00:35:07;4.05;;;2.80;;
25015;SDS011;13029;46.286;7.488;2022-10-01T00:37:36;4.47;;;3.10;;
25015;SDS011;13029;46.286;7.488;2022-10-01T00:40:02;5.28;;;3.70;;
25015;SDS011;13029;46.286;7.488;2022-10-01T00:42:28;4.60;;;2.90;;
25015;SDS011;13029;46.286;7.488;2022-10-01T00:44:54;3.95;;;3.13;;
25015;SDS011;13029;46.286;7.488;2022-10-01T00:47:24;4.32;;;2.80;;
25015;SDS011;13029;46.286;7.488;2022-10-01T00:49:53;3.63;;;2.80;;
25015;SDS011;13029;46.286;7.488;2022-10-01T00:52:22;3.13;;;2.83;;
25015;SDS011;13029;46.286;7.488;2022-10-01T00:54:50;3.80;;;3.40;;
25015;SDS011;13029;46.286;7.488;2022-10-01T00:57:19;5.65;;;3.78;;
25015;SDS011;13029;46.286;7.488;2022-10-01T00:59:47;4.82;;;3.92;;
25015;SDS011;13029;46.286;7.488;2022-10-01T01:02:13;5.30;;;4.38;;
25015;SDS011;13029;46.286;7.488;2022-10-01T01:04:39;4.75;;;4.03;;
25015;SDS011;13029;46.286;7.488;2022-10-01T01:07:05;6.05;;;3.95;;
25015;SDS011;13029;46.286;7.488;2022-10-01T01:09:44;10.00;;;4.90;;
25015;SDS011;13029;46.286;7.488;2022-10-01T01:15:04;5.70;;;4.22;;
25015;SDS011;13029;46.286;7.488;2022-10-01T01:17:53;6.25;;;5.05;;
25015;SDS011;13029;46.286;7.488;2022-10-01T01:26:25;6.38;;;5.72;;
25015;SDS011;13029;46.286;7.488;2022-10-01T01:28:45;7.40;;;6.45;;
25015;SDS011;13029;46.286;7.488;2022-10-01T01:31:12;8.60;;;6.80;;
25015;SDS011;13029;46.286;7.488;2022-10-01T01:33:40;7.13;;;6.43;;
25015;SDS011;13029;46.286;7.488;2022-10-01T01:36:14;8.02;;;6.55;;
25015;SDS011;13029;46.286;7.488;2022-10-01T01:38:43;7.38;;;6.68;;
25015;SDS011;13029;46.286;7.488;2022-10-01T01:41:15;9.05;;;7.10;;
25015;SDS011;13029;46.286;7.488;2022-10-01T01:43:43;9.13;;;6.93;;
25015;SDS011;13029;46.286;7.488;2022-10-01T01:46:10;7.88;;;7.05;;
25015;SDS011;13029;46.286;7.488;2022-10-01T01:48:37;10.25;;;7.72;;
25015;SDS011;13029;46.286;7.488;2022-10-01T01:51:15;10.77;;;7.45;;
25015;SDS011;13029;46.286;7.488;2022-10-01T01:53:44;9.13;;;8.23;;
25015;SDS011;13029;46.286;7.488;2022-10-01T01:56:10;8.45;;;7.55;;
25015;SDS011;13029;46.286;7.488;2022-10-01T01:58:35;10.38;;;8.32;;
25015;SDS011;13029;46.286;7.488;2022-10-01T02:01:02;8.70;;;7.47;;
25015;SDS011;13029;46.286;7.488;2022-10-01T02:03:27;10.32;;;7.65;;
25015;SDS011;13029;46.286;7.488;2022-10-01T02:05:57;10.15;;;8.73;;
25015;SDS011;13029;46.286;7.488;2022-10-01T02:14:50;9.02;;;8.10;;
25015;SDS011;13029;46.286;7.488;2022-10-01T02:17:00;11.32;;;8.02;;
25015;SDS011;13029;46.286;7.488;2022-10-01T02:19:35;9.07;;;7.45;;
25015;SDS011;13029;46.286;7.488;2022-10-01T02:22:07;9.77;;;7.60;;
25015;SDS011;13029;46.286;7.488;2022-10-01T02:24:40;8.95;;;7.97;;
25015;SDS011;13029;46.286;7.488;2022-10-01T02:27:16;8.85;;;7.00;;
25015;SDS011;13029;46.286;7.488;2022-10-01T02:29:51;8.25;;;7.03;;
25015;SDS011;13029;46.286;7.488;2022-10-01T02:32:23;7.53;;;6.63;;
25015;SDS011;13029;46.286;7.488;2022-10-01T02:34:48;8.00;;;6.95;;
25015;SDS011;13029;46.286;7.488;2022-10-01T02:37:15;8.90;;;7.82;;
25015;SDS011;13029;46.286;7.488;2022-10-01T02:39:42;7.63;;;6.78;;
25015;SDS011;13029;46.286;7.488;2022-10-01T02:42:09;9.13;;;7.72;;
25015;SDS011;13029;46.286;7.488;2022-10-01T02:44:36;14.02;;;7.72;;
25015;SDS011;13029;46.286;7.488;2022-10-01T02:49:45;9.50;;;7.35;;
25015;SDS011;13029;46.286;7.488;2022-10-01T02:52:15;9.90;;;7.68;;
25015;SDS011;13029;46.286;7.488;2022-10-01T02:54:49;10.68;;;8.65;;
25015;SDS011;13029;46.286;7.488;2022-10-01T02:57:17;7.78;;;6.93;;
25015;SDS011;13029;46.286;7.488;2022-10-01T02:59:51;10.88;;;7.43;;
25015;SDS011;13029;46.286;7.488;2022-10-01T03:02:18;8.35;;;7.45;;
25015;SDS011;13029;46.286;7.488;2022-10-01T03:04:44;9.00;;;7.75;;
25015;SDS011;13029;46.286;7.488;2022-10-01T03:07:12;9.25;;;8.23;;
25015;SDS011;13029;46.286;7.488;2022-10-01T03:09:37;10.20;;;8.27;;
25015;SDS011;13029;46.286;7.488;2022-10-01T03:12:02;12.40;;;7.63;;
25015;SDS011;13029;46.286;7.488;2022-10-01T03:14:28;9.23;;;7.80;;
25015;SDS011;13029;46.286;7.488;2022-10-01T03:16:53;8.75;;;7.82;;
25015;SDS011;13029;46.286;7.488;2022-10-01T03:19:19;8.73;;;7.30;;
25015;SDS011;13029;46.286;7.488;2022-10-01T03:21:45;9.63;;;7.35;;
25015;SDS011;13029;46.286;7.488;2022-10-01T03:24:10;9.10;;;6.60;;
25015;SDS011;13029;46.286;7.488;2022-10-01T03:26:36;12.48;;;7.57;;
25015;SDS011;13029;46.286;7.488;2022-10-01T03:29:01;8.75;;;7.47;;
25015;SDS011;13029;46.286;7.488;2022-10-01T03:31:27;8.82;;;7.93;;
25015;SDS011;13029;46.286;7.488;2022-10-01T03:33:52;9.80;;;7.68;;
25015;SDS011;13029;46.286;7.488;2022-10-01T03:36:18;8.57;;;7.25;;
25015;SDS011;13029;46.286;7.488;2022-10-01T03:38:43;8.35;;;6.78;;
25015;SDS011;13029;46.286;7.488;2022-10-01T03:41:09;7.70;;;6.80;;
25015;SDS011;13029;46.286;7.488;2022-10-01T03:43:34;8.95;;;6.80;;
25015;SDS011;13029;46.286;7.488;2022-10-01T03:45:59;7.70;;;6.82;;
25015;SDS011;13029;46.286;7.488;2022-10-01T03:48:25;7.65;;;6.65;;
25015;SDS011;13029;46.286;7.488;2022-10-01T03:50:54;8.18;;;6.50;;
25015;SDS011;13029;46.286;7.488;2022-10-01T03:53:21;7.07;;;6.38;;
25015;SDS011;13029;46.286;7.488;2022-10-01T03:55:46;7.22;;;5.82;;
25015;SDS011;13029;46.286;7.488;2022-10-01T03:58:12;6.45;;;5.75;;
25015;SDS011;13029;46.286;7.488;2022-10-01T04:00:37;7.38;;;6.40;;
25015;SDS011;13029;46.286;7.488;2022-10-01T04:03:03;7.97;;;7.13;;
25015;SDS011;13029;46.286;7.488;2022-10-01T04:05:28;7.32;;;6.03;;
25015;SDS011;13029;46.286;7.488;2022-10-01T04:07:53;7.88;;;6.10;;
25015;SDS011;13029;46.286;7.488;2022-10-01T04:10:19;9.85;;;6.25;;
25015;SDS011;13029;46.286;7.488;2022-10-01T04:12:44;7.78;;;6.38;;
25015;SDS011;13029;46.286;7.488;2022-10-01T04:15:09;7.35;;;6.07;;
25015;SDS011;13029;46.286;7.488;2022-10-01T04:17:35;6.50;;;5.72;;
25015;SDS011;13029;46.286;7.488;2022-10-01T04:20:01;7.55;;;5.88;;
25015;SDS011;13029;46.286;7.488;2022-10-01T04:22:26;8.00;;;6.32;;
25015;SDS011;13029;46.286;7.488;2022-10-01T04:24:51;7.68;;;5.97;;
25015;SDS011;13029;46.286;7.488;2022-10-01T04:27:17;7.70;;;5.63;;
25015;SDS011;13029;46.286;7.488;2022-10-01T04:29:43;6.55;;;5.45;;
25015;SDS011;13029;46.286;7.488;2022-10-01T04:32:08;7.05;;;5.18;;
25015;SDS011;13029;46.286;7.488;2022-10-01T04:34:33;5.63;;;5.07;;
25015;SDS011;13029;46.286;7.488;2022-10-01T04:37:17;6.53;;;4.50;;
25015;SDS011;13029;46.286;7.488;2022-10-01T04:39:43;4.30;;;3.90;;
25015;SDS011;13029;46.286;7.488;2022-10-01T04:42:09;7.53;;;4.13;;
25015;SDS011;13029;46.286;7.488;2022-10-01T04:44:34;4.32;;;3.63;;
25015;SDS011;13029;46.286;7.488;2022-10-01T04:46:59;3.75;;;3.30;;
25015;SDS011;13029;46.286;7.488;2022-10-01T04:49:25;7.05;;;3.92;;
25015;SDS011;13029;46.286;7.488;2022-10-01T04:51:50;3.92;;;3.53;;
25015;SDS011;13029;46.286;7.488;2022-10-01T04:54:16;7.45;;;3.00;;
25015;SDS011;13029;46.286;7.488;2022-10-01T04:56:41;4.63;;;2.78;;
25015;SDS011;13029;46.286;7.488;2022-10-01T04:59:06;5.00;;;3.35;;
25015;SDS011;13029;46.286;7.488;2022-10-01T05:01:31;4.13;;;3.53;;
25015;SDS011;13029;46.286;7.488;2022-10-01T05:03:57;3.95;;;3.42;;
25015;SDS011;13029;46.286;7.488;2022-10-01T05:06:22;5.43;;;3.35;;
25015;SDS011;13029;46.286;7.488;2022-10-01T05:08:48;3.88;;;3.42;;
25015;SDS011;13029;46.286;7.488;2022-10-01T05:11:13;3.92;;;3.42;;
25015;SDS011;13029;46.286;7.488;2022-10-01T05:13:39;3.78;;;3.22;;
25015;SDS011;13029;46.286;7.488;2022-10-01T05:16:05;7.40;;;3.58;;
25015;SDS011;13029;46.286;7.488;2022-10-01T05:18:31;5.38;;;3.38;;
25015;SDS011;13029;46.286;7.488;2022-10-01T05:20:56;3.83;;;3.42;;
25015;SDS011;13029;46.286;7.488;2022-10-01T05:23:22;4.10;;;2.88;;
25015;SDS011;13029;46.286;7.488;2022-10-01T05:25:47;4.68;;;2.78;;
25015;SDS011;13029;46.286;7.488;2022-10-01T05:28:12;5.15;;;3.22;;
25015;SDS011;13029;46.286;7.488;2022-10-01T05:30:38;4.50;;;3.05;;
25015;SDS011;13029;46.286;7.488;2022-10-01T05:33:04;3.22;;;2.92;;
25015;SDS011;13029;46.286;7.488;2022-10-01T05:35:29;3.10;;;2.70;;
25015;SDS011;13029;46.286;7.488;2022-10-01T05:37:56;3.47;;;2.53;;
25015;SDS011;13029;46.286;7.488;2022-10-01T05:40:22;3.13;;;2.58;;
25015;SDS011;13029;46.286;7.488;2022-10-01T05:42:51;2.70;;;2.17;;
25015;SDS011;13029;46.286;7.488;2022-10-01T05:45:17;7.32;;;2.10;;
25015;SDS011;13029;46.286;7.488;2022-10-01T05:47:46;2.00;;;1.80;;
25015;SDS011;13029;46.286;7.488;2022-10-01T05:50:13;2.33;;;2.13;;
25015;SDS011;13029;46.286;7.488;2022-10-01T05:52:38;4.55;;;2.40;;
25015;SDS011;13029;46.286;7.488;2022-10-01T05:55:06;4.13;;;2.63;;
25015;SDS011;13029;46.286;7.488;2022-10-01T05:57:32;3.42;;;2.72;;
25015;SDS011;13029;46.286;7.488;2022-10-01T05:59:57;4.60;;;2.97;;
25015;SDS011;13029;46.286;7.488;2022-10-01T06:02:23;3.65;;;2.95;;
25015;SDS011;13029;46.286;7.488;2022-10-01T06:04:48;3.65;;;3.03;;
25015;SDS011;13029;46.286;7.488;2022-10-01T06:07:13;3.63;;;2.95;;
25015;SDS011;13029;46.286;7.488;2022-10-01T06:09:39;3.30;;;3.00;;
25015;SDS011;13029;46.286;7.488;2022-10-01T06:12:04;3.50;;;2.97;;
25015;SDS011;13029;46.286;7.488;2022-10-01T06:14:33;3.45;;;2.70;;
25015;SDS011;13029;46.286;7.488;2022-10-01T06:16:59;3.83;;;2.78;;
25015;SDS011;13029;46.286;7.488;2022-10-01T06:19:24;4.05;;;3.00;;
25015;SDS011;13029;46.286;7.488;2022-10-01T06:21:50;3.40;;;3.03;;
25015;SDS011;13029;46.286;7.488;2022-10-01T06:24:15;5.10;;;3.90;;
25015;SDS011;13029;46.286;7.488;2022-10-01T06:26:41;4.63;;;3.90;;
25015;SDS011;13029;46.286;7.488;2022-10-01T06:29:06;9.60;;;4.57;;
25015;SDS011;13029;46.286;7.488;2022-10-01T06:31:31;4.97;;;4.47;;
25015;SDS011;13029;46.286;7.488;2022-10-01T06:33:57;5.50;;;4.95;;
25015;SDS011;13029;46.286;7.488;2022-10-01T06:36:22;5.97;;;5.38;;
25015;SDS011;13029;46.286;7.488;2022-10-01T06:38:47;6.38;;;5.22;;
25015;SDS011;13029;46.286;7.488;2022-10-01T06:41:13;6.60;;;5.80;;
25015;SDS011;13029;46.286;7.488;2022-10-01T06:43:38;8.35;;;6.40;;
25015;SDS011;13029;46.286;7.488;2022-10-01T06:46:04;7.82;;;5.75;;
25015;SDS011;13029;46.286;7.488;2022-10-01T06:48:29;5.90;;;5.30;;
25015;SDS011;13029;46.286;7.488;2022-10-01T06:50:55;6.43;;;4.65;;
25015;SDS011;13029;46.286;7.488;2022-10-01T06:53:21;4.63;;;4.22;;
25015;SDS011;13029;46.286;7.488;2022-10-01T06:55:46;9.60;;;4.25;;
25015;SDS011;13029;46.286;7.488;2022-10-01T06:58:14;6.57;;;5.15;;
25015;SDS011;13029;46.286;7.488;2022-10-01T07:00:41;6.55;;;5.15;;
25015;SDS011;13029;46.286;7.488;2022-10-01T07:03:08;5.53;;;5.03;;
25015;SDS011;13029;46.286;7.488;2022-10-01T07:05:37;6.30;;;5.00;;
25015;SDS011;13029;46.286;7.488;2022-10-01T07:08:03;5.43;;;4.50;;
25015;SDS011;13029;46.286;7.488;2022-10-01T07:10:29;6.50;;;4.80;;
25015;SDS011;13029;46.286;7.488;2022-10-01T07:13:04;5.78;;;4.70;;
25015;SDS011;13029;46.286;7.488;2022-10-01T07:15:33;5.20;;;4.30;;
25015;SDS011;13029;46.286;7.488;2022-10-01T07:17:58;7.53;;;5.13;;
25015;SDS011;13029;46.286;7.488;2022-10-01T07:20:24;8.25;;;5.70;;
25015;SDS011;13029;46.286;7.488;2022-10-01T07:22:54;11.02;;;4.80;;
25015;SDS011;13029;46.286;7.488;2022-10-01T07:25:21;5.55;;;4.72;;
25015;SDS011;13029;46.286;7.488;2022-10-01T07:27:46;4.95;;;4.20;;
25015;SDS011;13029;46.286;7.488;2022-10-01T07:30:11;5.53;;;4.78;;
25015;SDS011;13029;46.286;7.488;2022-10-01T07:32:37;6.82;;;6.15;;
25015;SDS011;13029;46.286;7.488;2022-10-01T07:35:02;10.05;;;6.38;;
25015;SDS011;13029;46.286;7.488;2022-10-01T07:37:29;7.03;;;6.32;;
25015;SDS011;13029;46.286;7.488;2022-10-01T07:39:55;7.40;;;5.50;;
25015;SDS011;13029;46.286;7.488;2022-10-01T07:42:20;4.45;;;3.88;;
25015;SDS011;13029;46.286;7.488;2022-10-01T07:44:45;3.40;;;2.03;;
25015;SDS011;13029;46.286;7.488;2022-10-01T07:47:11;5.38;;;2.80;;
25015;SDS011;13029;46.286;7.488;2022-10-01T07:49:36;6.95;;;5.88;;
25015;SDS011;13029;46.286;7.488;2022-10-01T07:52:02;10.25;;;6.68;;
25015;SDS011;13029;46.286;7.488;2022-10-01T07:54:27;8.60;;;6.30;;
25015;SDS011;13029;46.286;7.488;2022-10-01T07:56:52;9.75;;;7.28;;
25015;SDS011;13029;46.286;7.488;2022-10-01T07:59:22;5.00;;;4.07;;
25015;SDS011;13029;46.286;7.488;2022-10-01T08:01:49;2.78;;;2.38;;
25015;SDS011;13029;46.286;7.488;2022-10-01T08:04:21;3.80;;;1.33;;
25015;SDS011;13029;46.286;7.488;2022-10-01T08:07:06;0.73;;;0.40;;
25015;SDS011;13029;46.286;7.488;2022-10-01T08:09:32;0.35;;;0.30;;
25015;SDS011;13029;46.286;7.488;2022-10-01T08:11:57;1.73;;;0.50;;
25015;SDS011;13029;46.286;7.488;2022-10-01T08:14:22;0.57;;;0.57;;
25015;SDS011;13029;46.286;7.488;2022-10-01T08:16:48;0.50;;;0.50;;
25015;SDS011;13029;46.286;7.488;2022-10-01T08:19:13;0.57;;;0.32;;
25015;SDS011;13029;46.286;7.488;2022-10-01T08:21:39;1.13;;;0.60;;
25015;SDS011;13029;46.286;7.488;2022-10-01T08:24:04;0.95;;;0.40;;
25015;SDS011;13029;46.286;7.488;2022-10-01T08:26:30;0.50;;;0.40;;
25015;SDS011;13029;46.286;7.488;2022-10-01T08:28:55;1.00;;;0.50;;
25015;SDS011;13029;46.286;7.488;2022-10-01T08:31:21;1.20;;;0.80;;
25015;SDS011;13029;46.286;7.488;2022-10-01T08:33:46;0.95;;;0.73;;
25015;SDS011;13029;46.286;7.488;2022-10-01T08:36:12;0.60;;;0.40;;
25015;SDS011;13029;46.286;7.488;2022-10-01T08:38:37;0.82;;;0.57;;
25015;SDS011;13029;46.286;7.488;2022-10-01T08:44:18;0.50;;;0.50;;
25015;SDS011;13029;46.286;7.488;2022-10-01T08:46:45;0.30;;;0.30;;
25015;SDS011;13029;46.286;7.488;2022-10-01T08:49:31;0.38;;;0.38;;
25015;SDS011;13029;46.286;7.488;2022-10-01T08:54:50;0.35;;;0.35;;
25015;SDS011;13029;46.286;7.488;2022-10-01T08:57:21;0.85;;;0.40;;
25015;SDS011;13029;46.286;7.488;2022-10-01T08:59:49;0.47;;;0.40;;
25015;SDS011;13029;46.286;7.488;2022-10-01T09:02:18;3.25;;;1.60;;
25015;SDS011;13029;46.286;7.488;2022-10-01T09:04:44;2.22;;;1.80;;
25015;SDS011;13029;46.286;7.488;2022-10-01T09:07:54;3.40;;;1.67;;
25015;SDS011;13029;46.286;7.488;2022-10-01T09:10:21;1.60;;;1.50;;
25015;SDS011;13029;46.286;7.488;2022-10-01T09:13:32;2.22;;;1.90;;
25015;SDS011;13029;46.286;7.488;2022-10-01T09:21:18;2.38;;;1.55;;
25015;SDS011;13029;46.286;7.488;2022-10-01T09:23:51;1.98;;;1.60;;
25015;SDS011;13029;46.286;7.488;2022-10-01T09:26:27;3.28;;;1.90;;
25015;SDS011;13029;46.286;7.488;2022-10-01T09:28:52;3.00;;;1.70;;
25015;SDS011;13029;46.286;7.488;2022-10-01T09:31:26;1.73;;;1.50;;
25015;SDS011;13029;46.286;7.488;2022-10-01T09:34:09;2.17;;;1.48;;
25015;SDS011;13029;46.286;7.488;2022-10-01T09:36:46;3.20;;;1.30;;
25015;SDS011;13029;46.286;7.488;2022-10-01T09:39:25;2.92;;;1.23;;
25015;SDS011;13029;46.286;7.488;2022-10-01T09:41:53;1.17;;;1.00;;
25015;SDS011;13029;46.286;7.488;2022-10-01T09:44:24;2.55;;;1.50;;
25015;SDS011;13029;46.286;7.488;2022-10-01T09:46:51;1.00;;;0.90;;
25015;SDS011;13029;46.286;7.488;2022-10-01T09:49:26;0.90;;;0.90;;
25015;SDS011;13029;46.286;7.488;2022-10-01T09:52:05;1.27;;;1.08;;
25015;SDS011;13029;46.286;7.488;2022-10-01T09:54:58;1.33;;;1.00;;
25015;SDS011;13029;46.286;7.488;2022-10-01T10:00:10;1.45;;;0.80;;
25015;SDS011;13029;46.286;7.488;2022-10-01T10:02:40;0.63;;;0.63;;
25015;SDS011;13029;46.286;7.488;2022-10-01T10:07:59;0.88;;;0.75;;
25015;SDS011;13029;46.286;7.488;2022-10-01T10:10:32;3.03;;;1.00;;
25015;SDS011;13029;46.286;7.488;2022-10-01T10:15:33;0.93;;;0.75;;
25015;SDS011;13029;46.286;7.488;2022-10-01T10:18:04;0.73;;;0.50;;
25015;SDS011;13029;46.286;7.488;2022-10-01T10:20:37;0.75;;;0.70;;
25015;SDS011;13029;46.286;7.488;2022-10-01T10:25:38;1.42;;;0.60;;
25015;SDS011;13029;46.286;7.488;2022-10-01T10:28:14;2.22;;;0.80;;
25015;SDS011;13029;46.286;7.488;2022-10-01T10:30:43;1.05;;;0.90;;
25015;SDS011;13029;46.286;7.488;2022-10-01T10:33:10;0.80;;;0.80;;
25015;SDS011;13029;46.286;7.488;2022-10-01T10:35:38;2.65;;;0.77;;
25015;SDS011;13029;46.286;7.488;2022-10-01T10:38:03;0.70;;;0.70;;
25015;SDS011;13029;46.286;7.488;2022-10-01T10:40:31;2.67;;;0.63;;
25015;SDS011;13029;46.286;7.488;2022-10-01T10:43:04;1.05;;;0.75;;
25015;SDS011;13029;46.286;7.488;2022-10-01T10:45:33;0.50;;;0.50;;
25015;SDS011;13029;46.286;7.488;2022-10-01T10:48:02;1.35;;;0.80;;
25015;SDS011;13029;46.286;7.488;2022-10-01T10:50:38;1.38;;;1.27;;
25015;SDS011;13029;46.286;7.488;2022-10-01T10:53:18;2.67;;;2.28;;
25015;SDS011;13029;46.286;7.488;2022-10-01T10:55:52;5.90;;;3.20;;
25015;SDS011;13029;46.286;7.488;2022-10-01T10:58:18;6.80;;;3.90;;
25015;SDS011;13029;46.286;7.488;2022-10-01T11:00:44;4.78;;;3.85;;
25015;SDS011;13029;46.286;7.488;2022-10-01T11:03:13;3.65;;;2.97;;
25015;SDS011;13029;46.286;7.488;2022-10-01T11:05:40;4.47;;;3.42;;
25015;SDS011;13029;46.286;7.488;2022-10-01T11:08:11;5.78;;;3.92;;
25015;SDS011;13029;46.286;7.488;2022-10-01T11:13:12;6.30;;;4.45;;
25015;SDS011;13029;46.286;7.488;2022-10-01T11:21:55;3.45;;;2.50;;
25015;SDS011;13029;46.286;7.488;2022-10-01T11:29:30;2.53;;;1.48;;
25015;SDS011;13029;46.286;7.488;2022-10-01T11:32:11;2.35;;;1.77;;
25015;SDS011;13029;46.286;7.488;2022-10-01T11:42:56;39.90;;;29.95;;
25015;SDS011;13029;46.286;7.488;2022-10-01T11:45:27;20.00;;;16.60;;
25015;SDS011;13029;46.286;7.488;2022-10-01T11:48:16;10.57;;;8.98;;
25015;SDS011;13029;46.286;7.488;2022-10-01T11:50:48;6.07;;;4.03;;
25015;SDS011;13029;46.286;7.488;2022-10-01T11:53:23;3.25;;;1.83;;
25015;SDS011;13029;46.286;7.488;2022-10-01T11:56:10;4.07;;;1.75;;
25015;SDS011;13029;46.286;7.488;2022-10-01T11:59:17;4.68;;;1.70;;
25015;SDS011;13029;46.286;7.488;2022-10-01T12:01:48;1.83;;;1.63;;
25015;SDS011;13029;46.286;7.488;2022-10-01T12:04:32;1.85;;;1.65;;
25015;SDS011;13029;46.286;7.488;2022-10-01T12:07:03;2.45;;;1.88;;
25015;SDS011;13029;46.286;7.488;2022-10-01T12:09:35;4.32;;;2.00;;
25015;SDS011;13029;46.286;7.488;2022-10-01T12:14:40;2.85;;;1.60;;
25015;SDS011;13029;46.286;7.488;2022-10-01T12:17:16;3.30;;;2.20;;
25015;SDS011;13029;46.286;7.488;2022-10-01T12:19:45;2.25;;;0.90;;
25015;SDS011;13029;46.286;7.488;2022-10-01T12:22:21;0.65;;;0.65;;
25015;SDS011;13029;46.286;7.488;2022-10-01T12:24:49;1.02;;;0.90;;
25015;SDS011;13029;46.286;7.488;2022-10-01T12:29:57;1.00;;;0.85;;
25015;SDS011;13029;46.286;7.488;2022-10-01T12:54:02;2.70;;;1.80;;
25015;SDS011;13029;46.286;7.488;2022-10-01T12:57:00;1.60;;;1.20;;
25015;SDS011;13029;46.286;7.488;2022-10-01T12:59:41;4.35;;;1.20;;
25015;SDS011;13029;46.286;7.488;2022-10-01T13:15:57;3.90;;;2.45;;
25015;SDS011;13029;46.286;7.488;2022-10-01T13:23:54;37.43;;;25.33;;
25015;SDS011;13029;46.286;7.488;2022-10-01T13:28:57;8.80;;;6.47;;
25015;SDS011;13029;46.286;7.488;2022-10-01T13:31:32;67.05;;;48.90;;
25015;SDS011;13029;46.286;7.488;2022-10-01T13:34:02;8.00;;;5.18;;
25015;SDS011;13029;46.286;7.488;2022-10-01T13:36:29;0.98;;;0.80;;
25015;SDS011;13029;46.286;7.488;2022-10-01T13:38:55;0.95;;;0.93;;
25015;SDS011;13029;46.286;7.488;2022-10-01T13:41:21;2.67;;;1.73;;
25015;SDS011;13029;46.286;7.488;2022-10-01T13:43:48;5.18;;;3.17;;
25015;SDS011;13029;46.286;7.488;2022-10-01T13:46:24;3.85;;;2.70;;
25015;SDS011;13029;46.286;7.488;2022-10-01T13:48:50;2.20;;;1.98;;
25015;SDS011;13029;46.286;7.488;2022-10-01T13:51:16;3.60;;;2.65;;
25015;SDS011;13029;46.286;7.488;2022-10-01T13:53:53;8.07;;;4.00;;
25015;SDS011;13029;46.286;7.488;2022-10-01T13:56:29;4.95;;;3.60;;
25015;SDS011;13029;46.286;7.488;2022-10-01T13:58:56;8.40;;;4.70;;
25015;SDS011;13029;46.286;7.488;2022-10-01T14:06:38;2.95;;;2.65;;
25015;SDS011;13029;46.286;7.488;2022-10-01T14:09:19;3.13;;;2.80;;
25015;SDS011;13029;46.286;7.488;2022-10-01T14:12:12;2.40;;;2.20;;
25015;SDS011;13029;46.286;7.488;2022-10-01T14:14:58;5.43;;;4.93;;
25015;SDS011;13029;46.286;7.488;2022-10-01T14:17:42;3.60;;;3.30;;
25015;SDS011;13029;46.286;7.488;2022-10-01T14:20:15;3.70;;;2.70;;
25015;SDS011;13029;46.286;7.488;2022-10-01T14:25:25;3.50;;;3.17;;
25015;SDS011;13029;46.286;7.488;2022-10-01T14:28:00;15.18;;;4.07;;
25015;SDS011;13029;46.286;7.488;2022-10-01T14:31:05;10.30;;;5.53;;
25015;SDS011;13029;46.286;7.488;2022-10-01T14:36:40;31.98;;;6.47;;
25015;SDS011;13029;46.286;7.488;2022-10-01T14:39:14;46.00;;;6.45;;
25015;SDS011;13029;46.286;7.488;2022-10-01T14:41:39;20.02;;;15.75;;
25015;SDS011;13029;46.286;7.488;2022-10-01T14:46:52;10.65;;;9.65;;
25015;SDS011;13029;46.286;7.488;2022-10-01T14:51:51;2.67;;;2.47;;
25015;SDS011;13029;46.286;7.488;2022-10-01T14:54:19;2.65;;;2.42;;
25015;SDS011;13029;46.286;7.488;2022-10-01T14:56:45;3.55;;;3.25;;
25015;SDS011;13029;46.286;7.488;2022-10-01T14:59:15;3.85;;;3.38;;
25015;SDS011;13029;46.286;7.488;2022-10-01T15:01:52;2.97;;;2.70;;
25015;SDS011;13029;46.286;7.488;2022-10-01T15:04:23;3.33;;;2.35;;
25015;SDS011;13029;46.286;7.488;2022-10-01T15:06:49;3.65;;;2.92;;
25015;SDS011;13029;46.286;7.488;2022-10-01T15:09:14;5.00;;;3.70;;
25015;SDS011;13029;46.286;7.488;2022-10-01T15:11:42;4.07;;;3.65;;
25015;SDS011;13029;46.286;7.488;2022-10-01T15:14:09;6.40;;;3.20;;
25015;SDS011;13029;46.286;7.488;2022-10-01T15:16:39;106.00;;;10.38;;
25015;SDS011;13029;46.286;7.488;2022-10-01T15:19:05;32.72;;;25.52;;
25015;SDS011;13029;46.286;7.488;2022-10-01T15:24:04;373.90;;;15.88;;
25015;SDS011;13029;46.286;7.488;2022-10-01T15:26:31;299.52;;;18.08;;
25015;SDS011;13029;46.286;7.488;2022-10-01T15:29:00;543.33;;;24.20;;
25015;SDS011;13029;46.286;7.488;2022-10-01T15:31:35;573.00;;;26.50;;
25015;SDS011;13029;46.286;7.488;2022-10-01T15:34:04;367.77;;;16.63;;
25015;SDS011;13029;46.286;7.488;2022-10-01T15:36:31;64.50;;;12.73;;
25015;SDS011;13029;46.286;7.488;2022-10-01T15:38:58;265.75;;;15.02;;
25015;SDS011;13029;46.286;7.488;2022-10-01T15:41:25;264.52;;;30.15;;
25015;SDS011;13029;46.286;7.488;2022-10-01T15:43:53;48.42;;;16.92;;
25015;SDS011;13029;46.286;7.488;2022-10-01T15:49:09;24.88;;;5.63;;
25015;SDS011;13029;46.286;7.488;2022-10-01T15:51:35;70.53;;;6.18;;
25015;SDS011;13029;46.286;7.488;2022-10-01T15:54:03;7.75;;;4.53;;
25015;SDS011;13029;46.286;7.488;2022-10-01T15:56:32;9.93;;;8.93;;
25015;SDS011;13029;46.286;7.488;2022-10-01T15:58:59;8.48;;;7.32;;
25015;SDS011;13029;46.286;7.488;2022-10-01T16:01:28;13.68;;;9.27;;
25015;SDS011;13029;46.286;7.488;2022-10-01T16:03:55;9.73;;;7.10;;
25015;SDS011;13029;46.286;7.488;2022-10-01T16:06:32;7.22;;;6.53;;
25015;SDS011;13029;46.286;7.488;2022-10-01T16:09:00;6.80;;;5.30;;
25015;SDS011;13029;46.286;7.488;2022-10-01T16:11:28;4.38;;;3.97;;
25015;SDS011;13029;46.286;7.488;2022-10-01T16:16:45;6.45;;;2.88;;
25015;SDS011;13029;46.286;7.488;2022-10-01T16:19:27;9.85;;;8.95;;
25015;SDS011;13029;46.286;7.488;2022-10-01T16:24:44;9.50;;;3.97;;
25015;SDS011;13029;46.286;7.488;2022-10-01T16:29:52;35.28;;;28.58;;
25015;SDS011;13029;46.286;7.488;2022-10-01T16:32:19;10.90;;;9.55;;
25015;SDS011;13029;46.286;7.488;2022-10-01T16:34:45;17.83;;;14.90;;
25015;SDS011;13029;46.286;7.488;2022-10-01T16:37:10;10.93;;;9.82;;
25015;SDS011;13029;46.286;7.488;2022-10-01T16:39:35;2.05;;;1.83;;
25015;SDS011;13029;46.286;7.488;2022-10-01T16:42:01;134.10;;;6.25;;
25015;SDS011;13029;46.286;7.488;2022-10-01T16:44:27;347.35;;;15.07;;
25015;SDS011;13029;46.286;7.488;2022-10-01T16:46:52;290.35;;;14.60;;
25015;SDS011;13029;46.286;7.488;2022-10-01T16:49:20;64.88;;;31.60;;
25015;SDS011;13029;46.286;7.488;2022-10-01T16:51:50;20.60;;;11.27;;
25015;SDS011;13029;46.286;7.488;2022-10-01T16:54:20;2.70;;;1.67;;
25015;SDS011;13029;46.286;7.488;2022-10-01T16:56:48;3.80;;;1.27;;
25015;SDS011;13029;46.286;7.488;2022-10-01T16:59:14;1.40;;;1.30;;
25015;SDS011;13029;46.286;7.488;2022-10-01T17:01:40;4.30;;;2.30;;
25015;SDS011;13029;46.286;7.488;2022-10-01T17:04:08;47.10;;;7.22;;
25015;SDS011;13029;46.286;7.488;2022-10-01T17:06:35;67.03;;;7.85;;
25015;SDS011;13029;46.286;7.488;2022-10-01T17:09:00;29.73;;;6.57;;
25015;SDS011;13029;46.286;7.488;2022-10-01T17:11:25;7.72;;;3.70;;
25015;SDS011;13029;46.286;7.488;2022-10-01T17:13:52;318.90;;;17.23;;